createdAt,value
2022-08-05T00:00:16.541Z,4.50
2022-08-05T00:02:51.496Z,4.30
2022-08-05T00:06:02.744Z,4.00
2022-08-05T00:08:32.815Z,3.90
2022-08-05T00:11:00.365Z,4.20
2022-08-05T00:13:39.353Z,4.15
2022-08-05T00:16:09.451Z,4.32
2022-08-05T00:18:38.510Z,4.50
2022-08-05T00:21:06.450Z,4.30
2022-08-05T00:23:45.715Z,4.68
2022-08-05T00:26:22.507Z,4.10
2022-08-05T00:28:50.769Z,4.28
2022-08-05T00:31:53.028Z,4.05
2022-08-05T00:34:53.413Z,4.60
2022-08-05T00:37:11.392Z,4.10
2022-08-05T00:39:57.530Z,4.35
2022-08-05T00:42:35.481Z,4.28
2022-08-05T00:45:08.471Z,4.35
2022-08-05T00:47:56.676Z,4.57
2022-08-05T00:50:25.181Z,4.25
2022-08-05T00:52:53.292Z,4.35
2022-08-05T00:55:22.344Z,4.10
2022-08-05T00:57:58.158Z,3.85
2022-08-05T01:00:27.528Z,3.85
2022-08-05T01:02:55.126Z,4.03
2022-08-05T01:05:22.665Z,4.00
2022-08-05T01:08:29.856Z,4.20
2022-08-05T01:10:52.350Z,4.50
2022-08-05T01:13:27.375Z,4.47
2022-08-05T01:16:26.116Z,4.10
2022-08-05T01:18:58.561Z,4.30
2022-08-05T01:21:42.973Z,3.88
2022-08-05T01:24:30.201Z,4.30
2022-08-05T01:27:17.881Z,4.18
2022-08-05T01:29:50.098Z,4.60
2022-08-05T01:32:22.238Z,4.50
2022-08-05T01:34:54.317Z,4.50
2022-08-05T01:37:25.792Z,4.40
2022-08-05T01:39:58.746Z,4.30
2022-08-05T01:42:27.757Z,4.38
2022-08-05T01:44:59.177Z,4.35
2022-08-05T01:47:39.052Z,4.20
2022-08-05T01:50:09.207Z,4.60
2022-08-05T01:52:44.285Z,4.50
2022-08-05T01:55:14.078Z,4.60
2022-08-05T01:58:10.129Z,4.32
2022-08-05T02:00:32.819Z,4.22
2022-08-05T02:03:24.429Z,5.10
2022-08-05T02:05:59.737Z,4.53
2022-08-05T02:08:29.730Z,4.60
2022-08-05T02:11:01.110Z,4.82
2022-08-05T02:13:48.691Z,5.10
2022-08-05T02:16:24.478Z,4.90
2022-08-05T02:18:58.145Z,5.10
2022-08-05T02:21:27.863Z,4.70
2022-08-05T02:24:00.805Z,5.15
2022-08-05T02:26:36.811Z,5.38
2022-08-05T02:29:04.796Z,4.90
2022-08-05T02:31:34.764Z,5.22
2022-08-05T02:34:06.596Z,5.30
2022-08-05T02:36:37.828Z,5.50
2022-08-05T02:39:08.802Z,5.93
2022-08-05T02:41:58.253Z,5.88
2022-08-05T02:44:25.479Z,5.82
2022-08-05T02:47:00.510Z,5.32
2022-08-05T02:49:37.006Z,5.15
2022-08-05T02:52:07.606Z,5.68
2022-08-05T02:54:37.239Z,5.38
2022-08-05T02:57:10.084Z,5.40
2022-08-05T02:59:54.021Z,5.57
2022-08-05T03:02:27.448Z,5.78
2022-08-05T03:04:56.083Z,5.78
2022-08-05T03:07:48.504Z,6.05
2022-08-05T03:10:11.512Z,5.88
2022-08-05T03:12:41.142Z,5.45
2022-08-05T03:15:12.394Z,6.00
2022-08-05T03:17:41.497Z,5.93
2022-08-05T03:20:11.115Z,5.65
2022-08-05T03:22:44.151Z,6.20
2022-08-05T03:25:32.531Z,5.53
2022-08-05T03:28:02.706Z,6.20
2022-08-05T03:30:34.135Z,5.53
2022-08-05T03:33:05.592Z,5.72
2022-08-05T03:35:40.483Z,5.85
2022-08-05T03:38:09.065Z,5.60
2022-08-05T03:40:40.937Z,5.68
2022-08-05T03:43:15.917Z,6.40
2022-08-05T03:45:58.366Z,5.93
2022-08-05T03:48:28.163Z,6.55
2022-08-05T03:51:06.932Z,6.43
2022-08-05T03:55:34.249Z,6.25
2022-08-05T03:56:42.917Z,6.40
2022-08-05T03:59:20.470Z,6.30
2022-08-05T04:01:49.486Z,6.97
2022-08-05T04:04:21.357Z,7.22
2022-08-05T04:06:51.321Z,6.80
2022-08-05T04:09:20.308Z,6.80
2022-08-05T04:11:53.729Z,8.25
2022-08-05T04:14:30.479Z,7.65
2022-08-05T04:16:59.487Z,7.70
2022-08-05T04:19:28.595Z,7.00
2022-08-05T04:22:10.247Z,7.10
2022-08-05T04:24:44.512Z,7.40
2022-08-05T04:27:19.817Z,7.00
2022-08-05T04:30:08.527Z,6.97
2022-08-05T04:32:36.486Z,7.20
2022-08-05T04:35:07.702Z,7.10
2022-08-05T04:38:01.391Z,7.35
2022-08-05T04:40:34.566Z,7.30
2022-08-05T04:43:01.950Z,7.20
2022-08-05T04:45:47.807Z,7.70
2022-08-05T04:48:18.562Z,7.43
2022-08-05T04:51:02.773Z,7.50
2022-08-05T04:53:38.577Z,9.15
2022-08-05T04:56:32.699Z,7.75
2022-08-05T04:58:54.742Z,8.15
2022-08-05T05:02:05.709Z,7.07
2022-08-05T05:04:09.518Z,6.90
2022-08-05T05:06:44.910Z,6.47
2022-08-05T05:09:19.434Z,6.00
2022-08-05T05:11:53.084Z,6.15
2022-08-05T05:16:59.345Z,6.20
2022-08-05T05:19:36.445Z,5.65
2022-08-05T05:22:24.137Z,5.85
2022-08-05T05:24:58.637Z,5.85
2022-08-05T05:27:41.245Z,5.30
2022-08-05T05:30:15.659Z,5.40
2022-08-05T05:33:00.568Z,5.82
2022-08-05T05:35:29.016Z,5.90
2022-08-05T05:38:05.660Z,6.80
2022-08-05T05:40:36.516Z,5.90
2022-08-05T05:43:03.962Z,5.82
2022-08-05T05:45:36.116Z,5.70
2022-08-05T05:48:16.061Z,6.75
2022-08-05T05:50:44.231Z,5.97
2022-08-05T05:53:20.767Z,6.03
2022-08-05T05:55:52.044Z,6.82
2022-08-05T05:58:30.298Z,6.03
2022-08-05T06:01:11.971Z,5.80
2022-08-05T06:04:01.365Z,5.82
2022-08-05T06:06:31.094Z,5.68
2022-08-05T06:09:02.151Z,6.57
2022-08-05T06:11:31.463Z,5.20
2022-08-05T06:14:00.419Z,5.85
2022-08-05T06:16:36.721Z,5.85
2022-08-05T06:19:05.512Z,5.28
2022-08-05T06:21:35.999Z,4.80
2022-08-05T06:24:11.976Z,5.80
2022-08-05T06:26:40.069Z,5.53
2022-08-05T06:29:26.453Z,5.78
2022-08-05T06:32:21.118Z,5.00
2022-08-05T06:34:56.581Z,5.65
2022-08-05T06:37:56.586Z,5.93
2022-08-05T06:40:14.034Z,4.82
2022-08-05T06:42:46.419Z,5.20
2022-08-05T06:45:21.202Z,4.50
2022-08-05T06:48:36.869Z,4.65
2022-08-05T06:50:49.965Z,4.13
2022-08-05T06:53:22.455Z,4.07
2022-08-05T06:55:53.094Z,3.97
2022-08-05T06:58:30.004Z,5.10
2022-08-05T07:01:03.308Z,4.85
2022-08-05T07:03:32.960Z,4.22
2022-08-05T07:06:01.916Z,3.45
2022-08-05T07:08:33.831Z,3.70
2022-08-05T07:11:02.801Z,3.50
2022-08-05T07:14:01.510Z,3.17
2022-08-05T07:17:56.964Z,3.30
2022-08-05T07:22:28.116Z,3.50
2022-08-05T07:24:57.305Z,3.17
2022-08-05T07:27:27.657Z,2.92
2022-08-05T07:30:27.815Z,6.13
2022-08-05T07:32:58.090Z,2.88
2022-08-05T07:36:02.054Z,3.30
2022-08-05T07:38:32.571Z,3.40
2022-08-05T07:41:16.621Z,3.45
2022-08-05T07:43:49.286Z,3.13
2022-08-05T07:46:24.854Z,3.40
2022-08-05T07:49:01.397Z,3.80
2022-08-05T07:51:40.342Z,2.72
2022-08-05T07:54:09.777Z,3.65
2022-08-05T07:56:39.026Z,3.88
2022-08-05T07:59:38.295Z,2.80
2022-08-05T08:02:15.395Z,2.80
2022-08-05T08:04:45.134Z,3.17
2022-08-05T08:07:12.937Z,3.20
2022-08-05T08:09:40.333Z,4.03
2022-08-05T08:12:37.490Z,2.90
2022-08-05T08:14:56.739Z,2.78
2022-08-05T08:17:30.275Z,2.72
2022-08-05T08:20:21.052Z,3.10
2022-08-05T08:22:45.350Z,2.80
2022-08-05T08:25:16.025Z,2.60
2022-08-05T08:27:47.883Z,2.60
2022-08-05T08:30:32.538Z,3.35
2022-08-05T08:33:08.578Z,2.80
2022-08-05T08:35:52.501Z,2.58
2022-08-05T08:38:36.145Z,3.45
2022-08-05T08:41:06.653Z,2.72
2022-08-05T08:45:24.434Z,3.97
2022-08-05T08:46:24.950Z,3.20
2022-08-05T08:49:08.084Z,3.10
2022-08-05T08:52:02.929Z,3.53
2022-08-05T08:54:32.338Z,3.08
2022-08-05T08:57:00.088Z,3.97
2022-08-05T08:59:33.832Z,3.20
2022-08-05T09:04:30.987Z,3.05
2022-08-05T09:06:58.805Z,2.58
2022-08-05T09:09:34.590Z,2.55
2022-08-05T09:12:19.821Z,2.92
2022-08-05T09:14:58.275Z,3.00
2022-08-05T09:17:42.256Z,3.00
2022-08-05T09:20:12.100Z,3.42
2022-08-05T09:23:09.231Z,3.67
2022-08-05T09:26:03.413Z,4.15
2022-08-05T09:28:31.876Z,2.60
2022-08-05T09:31:22.682Z,3.10
2022-08-05T09:33:56.274Z,2.67
2022-08-05T09:36:27.759Z,3.30
2022-08-05T09:39:02.327Z,3.25
2022-08-05T09:41:33.192Z,3.78
2022-08-05T09:44:06.773Z,4.15
2022-08-05T09:46:35.588Z,3.20
2022-08-05T09:49:19.558Z,2.78
2022-08-05T09:51:48.998Z,2.25
2022-08-05T09:54:28.786Z,2.30
2022-08-05T09:56:57.560Z,2.95
2022-08-05T09:59:27.599Z,2.63
2022-08-05T10:01:58.023Z,2.50
2022-08-05T10:04:36.173Z,2.70
2022-08-05T10:07:20.803Z,3.88
2022-08-05T10:10:14.239Z,2.67
2022-08-05T10:12:49.295Z,2.70
2022-08-05T10:15:20.866Z,2.70
2022-08-05T10:18:05.056Z,3.00
2022-08-05T10:20:36.165Z,3.90
2022-08-05T10:23:03.744Z,3.33
2022-08-05T10:25:36.615Z,3.03
2022-08-05T10:28:13.057Z,3.25
2022-08-05T10:32:49.556Z,3.78
2022-08-05T10:33:35.096Z,3.00
2022-08-05T10:36:06.029Z,3.22
2022-08-05T10:38:34.838Z,3.35
2022-08-05T10:41:08.812Z,3.30
2022-08-05T10:43:47.821Z,3.20
2022-08-05T10:46:17.209Z,3.10
2022-08-05T10:48:56.413Z,3.13
2022-08-05T10:51:57.427Z,3.80
2022-08-05T10:54:56.254Z,4.07
2022-08-05T10:57:32.367Z,3.35
2022-08-05T11:00:19.757Z,3.20
2022-08-05T11:03:25.858Z,3.45
2022-08-05T11:06:15.956Z,3.20
2022-08-05T11:09:18.504Z,3.35
2022-08-05T11:11:53.528Z,3.30
2022-08-05T11:14:49.471Z,3.63
2022-08-05T11:18:09.732Z,3.80
2022-08-05T11:20:41.548Z,3.80
2022-08-05T11:23:33.463Z,3.33
2022-08-05T11:26:28.484Z,3.40
2022-08-05T11:29:06.824Z,3.30
2022-08-05T11:31:57.501Z,2.95
2022-08-05T11:34:51.525Z,2.90
2022-08-05T11:38:30.741Z,3.13
2022-08-05T11:41:14.119Z,2.75
2022-08-05T11:44:06.535Z,2.60
2022-08-05T11:46:37.685Z,2.55
2022-08-05T11:49:08.017Z,2.60
2022-08-05T11:51:44.346Z,2.60
2022-08-05T11:54:24.386Z,2.72
2022-08-05T11:57:08.739Z,2.63
2022-08-05T11:59:51.722Z,2.45
2022-08-05T12:02:29.781Z,2.90
2022-08-05T12:04:59.631Z,2.50
2022-08-05T12:08:09.138Z,2.90
2022-08-05T12:10:19.298Z,2.80
2022-08-05T12:12:59.486Z,3.00
2022-08-05T12:15:33.247Z,3.40
2022-08-05T12:18:10.713Z,3.05
2022-08-05T12:20:39.604Z,3.13
2022-08-05T12:23:09.645Z,3.13
2022-08-05T12:25:50.045Z,3.10
2022-08-05T12:28:31.343Z,3.05
2022-08-05T12:31:02.421Z,3.28
2022-08-05T12:33:37.105Z,2.85
2022-08-05T12:36:08.535Z,3.85
2022-08-05T12:38:37.525Z,3.15
2022-08-05T12:41:12.974Z,2.42
2022-08-05T12:43:52.143Z,2.55
2022-08-05T12:46:29.216Z,2.90
2022-08-05T12:48:58.495Z,2.92
2022-08-05T12:52:11.092Z,2.53
2022-08-05T12:54:23.364Z,2.90
2022-08-05T12:56:55.176Z,2.65
2022-08-05T12:59:27.666Z,2.50
2022-08-05T13:02:14.805Z,2.33
2022-08-05T13:04:54.345Z,2.30
2022-08-05T13:07:54.741Z,2.97
2022-08-05T13:10:13.085Z,3.13
2022-08-05T13:12:42.494Z,3.53
2022-08-05T13:15:24.455Z,2.90
2022-08-05T13:18:04.926Z,3.28
2022-08-05T13:20:40.507Z,20.20
2022-08-05T13:23:08.380Z,7.20
2022-08-05T13:25:58.564Z,5.18
2022-08-05T13:28:23.598Z,4.00
2022-08-05T13:30:51.262Z,3.95
2022-08-05T13:34:22.859Z,3.25
2022-08-05T13:36:09.766Z,2.85
2022-08-05T13:38:41.928Z,2.95
2022-08-05T13:41:10.315Z,2.50
2022-08-05T13:43:45.098Z,2.90
2022-08-05T13:47:01.796Z,2.78
2022-08-05T13:49:12.613Z,2.58
2022-08-05T13:51:41.454Z,2.88
2022-08-05T13:54:12.924Z,2.53
2022-08-05T13:56:45.457Z,2.30
2022-08-05T13:59:19.576Z,19.30
2022-08-05T14:01:57.967Z,2.80
2022-08-05T14:04:50.102Z,2.40
2022-08-05T14:07:55.411Z,2.67
2022-08-05T14:10:08.383Z,3.05
2022-08-05T14:12:36.160Z,2.70
2022-08-05T14:15:05.825Z,2.63
2022-08-05T14:17:51.081Z,2.67
2022-08-05T14:20:27.203Z,2.50
2022-08-05T14:22:54.955Z,2.80
2022-08-05T14:25:28.478Z,2.78
2022-08-05T14:27:58.631Z,2.70
2022-08-05T14:30:28.113Z,3.00
2022-08-05T14:32:56.888Z,2.58
2022-08-05T14:35:37.492Z,2.88
2022-08-05T14:38:31.688Z,2.72
2022-08-05T14:41:05.631Z,3.08
2022-08-05T14:43:59.191Z,2.88
2022-08-05T14:46:21.623Z,2.65
2022-08-05T14:48:50.095Z,2.97
2022-08-05T14:51:19.094Z,2.90
2022-08-05T14:54:26.619Z,3.00
2022-08-05T14:56:38.127Z,2.90
2022-08-05T14:59:12.736Z,3.22
2022-08-05T15:01:49.185Z,2.65
2022-08-05T15:04:17.238Z,2.83
2022-08-05T15:06:48.988Z,2.90
2022-08-05T15:09:16.606Z,2.70
2022-08-05T15:12:04.438Z,3.10
2022-08-05T15:14:34.595Z,2.95
2022-08-05T15:17:46.869Z,2.60
2022-08-05T15:19:58.109Z,3.13
2022-08-05T15:22:28.471Z,3.03
2022-08-05T15:24:59.473Z,3.20
2022-08-05T15:27:32.115Z,3.35
2022-08-05T15:30:04.154Z,3.50
2022-08-05T15:32:32.290Z,3.65
2022-08-05T15:34:59.727Z,3.25
2022-08-05T15:38:32.797Z,3.25
2022-08-05T15:41:03.891Z,3.38
2022-08-05T15:43:19.708Z,3.50
2022-08-05T15:46:00.161Z,3.50
2022-08-05T15:48:28.438Z,3.75
2022-08-05T15:50:56.472Z,3.72
2022-08-05T15:53:26.311Z,3.72
2022-08-05T15:56:01.831Z,4.18
2022-08-05T15:58:35.761Z,4.53
2022-08-05T16:01:16.453Z,4.20
2022-08-05T16:03:48.338Z,4.60
2022-08-05T16:06:19.561Z,4.13
2022-08-05T16:08:51.027Z,4.55
2022-08-05T16:11:40.017Z,3.90
2022-08-05T16:14:07.921Z,4.53
2022-08-05T16:16:36.594Z,4.30
2022-08-05T16:19:04.702Z,4.80
2022-08-05T16:21:58.478Z,4.68
2022-08-05T16:24:39.827Z,4.53
2022-08-05T16:27:08.474Z,5.35
2022-08-05T16:29:37.290Z,4.90
2022-08-05T16:32:06.304Z,4.68
2022-08-05T16:34:33.885Z,4.80
2022-08-05T16:37:01.282Z,4.60
2022-08-05T16:40:04.830Z,4.10
2022-08-05T16:42:27.990Z,3.90
2022-08-05T16:44:57.029Z,3.67
2022-08-05T16:47:35.773Z,5.18
2022-08-05T16:50:04.327Z,4.50
2022-08-05T16:52:33.497Z,4.28
2022-08-05T16:55:02.479Z,4.18
2022-08-05T16:57:53.798Z,4.35
2022-08-05T17:00:26.251Z,4.18
2022-08-05T17:03:02.691Z,4.30
2022-08-05T17:05:31.150Z,4.88
2022-08-05T17:07:58.569Z,5.22
2022-08-05T17:10:30.322Z,5.43
2022-08-05T17:12:58.353Z,5.30
2022-08-05T17:15:38.848Z,5.00
2022-08-05T17:18:14.111Z,5.28
2022-08-05T17:20:42.810Z,5.10
2022-08-05T17:24:03.783Z,4.82
2022-08-05T17:26:00.522Z,5.25
2022-08-05T17:28:29.754Z,4.72
2022-08-05T17:30:57.175Z,4.70
2022-08-05T17:33:25.921Z,4.68
2022-08-05T17:36:08.139Z,4.32
2022-08-05T17:38:37.713Z,4.07
2022-08-05T17:41:11.685Z,3.60
2022-08-05T17:43:56.370Z,3.08
2022-08-05T17:46:25.275Z,3.22
2022-08-05T17:48:52.874Z,3.40
2022-08-05T17:51:21.693Z,3.25
2022-08-05T17:53:50.729Z,2.40
2022-08-05T17:56:23.321Z,2.05
2022-08-05T17:58:55.914Z,2.00
2022-08-05T18:01:23.621Z,1.73
2022-08-05T18:04:03.938Z,1.38
2022-08-05T18:06:32.437Z,1.75
2022-08-05T18:09:00.078Z,1.38
2022-08-05T18:11:33.833Z,1.60
2022-08-05T18:14:04.223Z,1.30
2022-08-05T18:16:32.885Z,1.30
2022-08-05T18:19:00.529Z,1.15
2022-08-05T18:22:07.490Z,1.10
2022-08-05T18:24:15.655Z,1.10
2022-08-05T18:26:44.669Z,1.05
2022-08-05T18:29:16.705Z,0.90
2022-08-05T18:31:44.534Z,0.95
2022-08-05T18:34:12.763Z,0.75
2022-08-05T18:36:41.285Z,0.98
2022-08-05T18:39:41.838Z,0.90
2022-08-05T18:42:07.620Z,1.10
2022-08-05T18:44:49.027Z,0.65
2022-08-05T18:47:22.880Z,0.77
2022-08-05T18:50:11.837Z,0.90
2022-08-05T18:52:41.657Z,0.90
2022-08-05T18:55:19.294Z,0.70
2022-08-05T18:57:52.826Z,0.88
2022-08-05T19:00:28.746Z,1.23
2022-08-05T19:02:57.518Z,1.25
2022-08-05T19:06:11.914Z,0.70
2022-08-05T19:08:18.701Z,1.02
2022-08-05T19:10:46.259Z,1.05
2022-08-05T19:13:15.879Z,1.10
2022-08-05T19:15:58.081Z,1.00
2022-08-05T19:18:28.658Z,1.25
2022-08-05T19:20:56.462Z,1.08
2022-08-05T19:24:07.615Z,1.13
2022-08-05T19:26:11.915Z,1.20
2022-08-05T19:28:42.032Z,1.30
2022-08-05T19:31:13.498Z,1.42
2022-08-05T19:33:48.293Z,1.13
2022-08-05T19:36:24.249Z,1.50
2022-08-05T19:38:51.867Z,2.30
2022-08-05T19:41:22.172Z,1.80
2022-08-05T19:44:13.472Z,1.55
2022-08-05T19:46:43.730Z,1.45
2022-08-05T19:49:12.570Z,1.48
2022-08-05T19:52:05.206Z,1.60
2022-08-05T19:54:32.970Z,1.63
2022-08-05T19:57:06.501Z,1.92
2022-08-05T19:59:56.515Z,1.83
2022-08-05T20:02:26.296Z,2.15
2022-08-05T20:04:55.310Z,1.70
2022-08-05T20:07:38.992Z,1.75
2022-08-05T20:10:13.452Z,1.50
2022-08-05T20:12:46.146Z,1.55
2022-08-05T20:15:23.188Z,1.42
2022-08-05T20:18:10.193Z,1.60
2022-08-05T20:20:55.986Z,1.75
2022-08-05T20:23:40.766Z,1.85
2022-08-05T20:26:15.371Z,1.70
2022-08-05T20:28:45.485Z,1.70
2022-08-05T20:31:14.163Z,1.88
2022-08-05T20:33:44.536Z,1.60
2022-08-05T20:36:12.350Z,1.80
2022-08-05T20:38:54.380Z,1.58
2022-08-05T20:41:27.483Z,1.70
2022-08-05T20:44:16.937Z,1.95
2022-08-05T20:46:48.591Z,2.03
2022-08-05T20:49:18.423Z,1.60
2022-08-05T20:51:53.445Z,1.60
2022-08-05T20:54:21.382Z,2.03
2022-08-05T20:56:48.985Z,1.80
2022-08-05T20:59:19.186Z,1.98
2022-08-05T21:01:57.912Z,1.90
2022-08-05T21:04:27.031Z,1.58
2022-08-05T21:06:54.753Z,1.85
2022-08-05T21:09:23.264Z,1.85
2022-08-05T21:12:09.747Z,1.50
2022-08-05T21:14:38.746Z,1.58
2022-08-05T21:17:07.532Z,1.52
2022-08-05T21:19:47.139Z,1.80
2022-08-05T21:22:21.908Z,1.90
2022-08-05T21:24:52.429Z,1.90
2022-08-05T21:27:24.619Z,1.98
2022-08-05T21:29:55.262Z,1.80
2022-08-05T21:32:26.760Z,2.15
2022-08-05T21:35:06.941Z,2.00
2022-08-05T21:37:42.818Z,2.10
2022-08-05T21:40:16.639Z,1.70
2022-08-05T21:42:45.779Z,2.00
2022-08-05T21:45:25.184Z,1.98
2022-08-05T21:48:06.413Z,2.38
2022-08-05T21:50:34.387Z,2.08
2022-08-05T21:53:16.460Z,3.33
2022-08-05T21:56:06.136Z,2.35
2022-08-05T21:58:32.878Z,2.08
2022-08-05T22:01:00.893Z,2.20
2022-08-05T22:03:48.633Z,2.15
2022-08-05T22:06:22.859Z,1.95
2022-08-05T22:08:52.066Z,2.00
2022-08-05T22:11:34.699Z,2.10
2022-08-05T22:14:32.329Z,1.92
2022-08-05T22:16:50.978Z,2.30
2022-08-05T22:20:02.180Z,1.88
2022-08-05T22:22:08.840Z,2.40
2022-08-05T22:24:55.756Z,1.98
2022-08-05T22:28:09.741Z,2.45
2022-08-05T22:30:35.273Z,2.15
2022-08-05T22:33:03.542Z,2.22
2022-08-05T22:35:47.919Z,2.10
2022-08-05T22:38:16.490Z,2.00
2022-08-05T22:40:49.495Z,2.00
2022-08-05T22:43:36.257Z,2.10
2022-08-05T22:46:11.983Z,1.90
2022-08-05T22:48:41.678Z,1.70
2022-08-05T22:51:22.415Z,1.98
2022-08-05T22:53:50.523Z,2.20
2022-08-05T22:56:18.091Z,2.30
2022-08-05T22:58:58.312Z,2.10
2022-08-05T23:02:05.125Z,1.92
2022-08-05T23:04:15.091Z,1.98
2022-08-05T23:06:44.564Z,2.10
2022-08-05T23:09:26.816Z,2.00
2022-08-05T23:11:55.524Z,2.00
2022-08-05T23:14:32.300Z,1.70
2022-08-05T23:17:23.971Z,1.90
2022-08-05T23:19:56.362Z,2.10
2022-08-05T23:22:27.381Z,2.08
2022-08-05T23:24:55.882Z,1.80
2022-08-05T23:27:24.041Z,2.05
2022-08-05T23:29:51.594Z,2.17
2022-08-05T23:32:22.759Z,2.00
2022-08-05T23:34:50.979Z,1.90
2022-08-05T23:37:18.580Z,1.95
2022-08-05T23:39:54.416Z,2.00
2022-08-05T23:42:23.594Z,1.67
2022-08-05T23:44:57.090Z,1.70
2022-08-05T23:47:25.060Z,1.52
2022-08-05T23:49:55.672Z,1.42
2022-08-05T23:52:30.756Z,1.60
2022-08-05T23:55:01.900Z,1.48
2022-08-05T23:57:32.983Z,1.30
